sensor_id;sensor_type;location;lat;lon;timestamp;P1;durP1;ratioP1;P2;durP2;ratioP2
65156;SDS011;52745;49.794;18.258;2022-09-09T00:00:17;2.67;;;2.03;;
65156;SDS011;52745;49.794;18.258;2022-09-09T00:03:12;2.70;;;2.00;;
65156;SDS011;52745;49.794;18.258;2022-09-09T00:05:55;2.10;;;1.90;;
65156;SDS011;52745;49.794;18.258;2022-09-09T00:08:38;1.73;;;1.60;;
65156;SDS011;52745;49.794;18.258;2022-09-09T00:11:07;3.22;;;2.15;;
65156;SDS011;52745;49.794;18.258;2022-09-09T00:13:48;7.13;;;4.28;;
65156;SDS011;52745;49.794;18.258;2022-09-09T00:16:21;4.40;;;2.53;;
65156;SDS011;52745;49.794;18.258;2022-09-09T00:21:36;3.55;;;2.20;;
65156;SDS011;52745;49.794;18.258;2022-09-09T00:24:12;3.28;;;1.90;;
65156;SDS011;52745;49.794;18.258;2022-09-09T00:27:07;1.95;;;1.60;;
65156;SDS011;52745;49.794;18.258;2022-09-09T00:29:46;2.55;;;1.67;;
65156;SDS011;52745;49.794;18.258;2022-09-09T00:32:20;5.82;;;1.50;;
65156;SDS011;52745;49.794;18.258;2022-09-09T00:34:49;1.75;;;1.45;;
65156;SDS011;52745;49.794;18.258;2022-09-09T00:37:19;3.20;;;1.35;;
65156;SDS011;52745;49.794;18.258;2022-09-09T00:39:48;4.18;;;1.35;;
65156;SDS011;52745;49.794;18.258;2022-09-09T00:42:24;3.85;;;1.58;;
65156;SDS011;52745;49.794;18.258;2022-09-09T00:45:30;1.90;;;1.30;;
65156;SDS011;52745;49.794;18.258;2022-09-09T00:48:10;1.48;;;1.30;;
65156;SDS011;52745;49.794;18.258;2022-09-09T00:58:50;1.70;;;1.50;;
65156;SDS011;52745;49.794;18.258;2022-09-09T01:01:26;2.80;;;1.40;;
65156;SDS011;52745;49.794;18.258;2022-09-09T01:03:53;3.78;;;1.52;;
65156;SDS011;52745;49.794;18.258;2022-09-09T01:06:30;2.95;;;1.50;;
65156;SDS011;52745;49.794;18.258;2022-09-09T01:17:03;4.90;;;1.90;;
65156;SDS011;52745;49.794;18.258;2022-09-09T01:28:08;2.70;;;1.85;;
65156;SDS011;52745;49.794;18.258;2022-09-09T01:30:39;3.28;;;1.85;;
65156;SDS011;52745;49.794;18.258;2022-09-09T01:33:19;2.47;;;1.70;;
65156;SDS011;52745;49.794;18.258;2022-09-09T01:35:54;3.28;;;1.50;;
65156;SDS011;52745;49.794;18.258;2022-09-09T01:38:25;7.53;;;1.80;;
65156;SDS011;52745;49.794;18.258;2022-09-09T01:40:53;6.32;;;1.90;;
65156;SDS011;52745;49.794;18.258;2022-09-09T01:43:25;2.78;;;2.03;;
65156;SDS011;52745;49.794;18.258;2022-09-09T01:45:53;5.30;;;1.85;;
65156;SDS011;52745;49.794;18.258;2022-09-09T01:48:22;4.15;;;2.10;;
65156;SDS011;52745;49.794;18.258;2022-09-09T01:51:00;3.30;;;1.88;;
65156;SDS011;52745;49.794;18.258;2022-09-09T01:53:26;3.33;;;2.10;;
65156;SDS011;52745;49.794;18.258;2022-09-09T01:56:00;5.50;;;2.00;;
65156;SDS011;52745;49.794;18.258;2022-09-09T01:58:32;6.18;;;2.20;;
65156;SDS011;52745;49.794;18.258;2022-09-09T02:01:28;4.28;;;2.20;;
65156;SDS011;52745;49.794;18.258;2022-09-09T02:04:18;4.57;;;1.90;;
65156;SDS011;52745;49.794;18.258;2022-09-09T02:07:19;3.45;;;2.58;;
65156;SDS011;52745;49.794;18.258;2022-09-09T02:09:52;2.58;;;2.00;;
65156;SDS011;52745;49.794;18.258;2022-09-09T02:12:28;4.97;;;2.28;;
65156;SDS011;52745;49.794;18.258;2022-09-09T02:15:03;4.18;;;2.17;;
65156;SDS011;52745;49.794;18.258;2022-09-09T02:17:43;3.35;;;2.53;;
65156;SDS011;52745;49.794;18.258;2022-09-09T02:20:15;4.25;;;2.60;;
65156;SDS011;52745;49.794;18.258;2022-09-09T02:22:54;3.78;;;2.70;;
65156;SDS011;52745;49.794;18.258;2022-09-09T02:25:24;3.08;;;2.55;;
65156;SDS011;52745;49.794;18.258;2022-09-09T02:27:59;3.17;;;2.70;;
65156;SDS011;52745;49.794;18.258;2022-09-09T02:30:29;4.38;;;2.55;;
65156;SDS011;52745;49.794;18.258;2022-09-09T02:32:58;3.72;;;3.30;;
65156;SDS011;52745;49.794;18.258;2022-09-09T02:35:41;4.72;;;2.75;;
65156;SDS011;52745;49.794;18.258;2022-09-09T02:38:12;6.03;;;3.17;;
65156;SDS011;52745;49.794;18.258;2022-09-09T02:40:49;3.78;;;2.97;;
65156;SDS011;52745;49.794;18.258;2022-09-09T02:43:15;3.95;;;2.90;;
65156;SDS011;52745;49.794;18.258;2022-09-09T02:48:48;5.88;;;3.05;;
65156;SDS011;52745;49.794;18.258;2022-09-09T02:51:32;4.88;;;3.13;;
65156;SDS011;52745;49.794;18.258;2022-09-09T02:54:27;5.05;;;2.97;;
65156;SDS011;52745;49.794;18.258;2022-09-09T02:57:01;4.25;;;3.30;;
65156;SDS011;52745;49.794;18.258;2022-09-09T02:59:37;4.07;;;3.35;;
65156;SDS011;52745;49.794;18.258;2022-09-09T03:02:05;4.95;;;3.65;;
65156;SDS011;52745;49.794;18.258;2022-09-09T03:04:32;4.80;;;3.20;;
65156;SDS011;52745;49.794;18.258;2022-09-09T03:06:59;4.93;;;3.08;;
65156;SDS011;52745;49.794;18.258;2022-09-09T03:09:25;4.93;;;2.90;;
65156;SDS011;52745;49.794;18.258;2022-09-09T03:11:53;5.53;;;3.13;;
65156;SDS011;52745;49.794;18.258;2022-09-09T03:14:21;6.57;;;3.50;;
65156;SDS011;52745;49.794;18.258;2022-09-09T03:16:51;3.92;;;3.25;;
65156;SDS011;52745;49.794;18.258;2022-09-09T03:19:19;5.22;;;3.15;;
65156;SDS011;52745;49.794;18.258;2022-09-09T03:21:47;7.57;;;3.30;;
65156;SDS011;52745;49.794;18.258;2022-09-09T03:24:13;4.13;;;3.45;;
65156;SDS011;52745;49.794;18.258;2022-09-09T03:26:41;4.55;;;3.70;;
65156;SDS011;52745;49.794;18.258;2022-09-09T03:29:12;5.97;;;4.28;;
65156;SDS011;52745;49.794;18.258;2022-09-09T03:31:40;6.25;;;4.00;;
65156;SDS011;52745;49.794;18.258;2022-09-09T03:34:07;5.00;;;3.83;;
65156;SDS011;52745;49.794;18.258;2022-09-09T03:36:35;10.10;;;4.78;;
65156;SDS011;52745;49.794;18.258;2022-09-09T03:39:04;5.97;;;3.70;;
65156;SDS011;52745;49.794;18.258;2022-09-09T03:41:31;6.80;;;3.97;;
65156;SDS011;52745;49.794;18.258;2022-09-09T03:43:59;4.70;;;3.92;;
65156;SDS011;52745;49.794;18.258;2022-09-09T03:46:27;6.05;;;3.95;;
65156;SDS011;52745;49.794;18.258;2022-09-09T03:48:54;6.30;;;3.83;;
65156;SDS011;52745;49.794;18.258;2022-09-09T03:51:21;5.93;;;3.80;;
65156;SDS011;52745;49.794;18.258;2022-09-09T03:53:48;5.53;;;4.20;;
65156;SDS011;52745;49.794;18.258;2022-09-09T03:56:15;5.22;;;4.00;;
65156;SDS011;52745;49.794;18.258;2022-09-09T03:58:41;5.57;;;3.78;;
65156;SDS011;52745;49.794;18.258;2022-09-09T04:01:11;5.90;;;3.97;;
65156;SDS011;52745;49.794;18.258;2022-09-09T04:03:39;5.82;;;4.15;;
65156;SDS011;52745;49.794;18.258;2022-09-09T04:06:08;6.50;;;4.10;;
65156;SDS011;52745;49.794;18.258;2022-09-09T04:08:36;8.50;;;5.93;;
65156;SDS011;52745;49.794;18.258;2022-09-09T04:11:04;7.47;;;6.07;;
65156;SDS011;52745;49.794;18.258;2022-09-09T04:13:33;5.68;;;4.38;;
65156;SDS011;52745;49.794;18.258;2022-09-09T04:16:01;6.85;;;4.85;;
65156;SDS011;52745;49.794;18.258;2022-09-09T04:18:30;6.25;;;4.80;;
65156;SDS011;52745;49.794;18.258;2022-09-09T04:20:57;8.82;;;4.55;;
65156;SDS011;52745;49.794;18.258;2022-09-09T04:23:26;5.80;;;4.85;;
65156;SDS011;52745;49.794;18.258;2022-09-09T04:25:57;7.25;;;4.82;;
65156;SDS011;52745;49.794;18.258;2022-09-09T04:28:26;5.80;;;4.53;;
65156;SDS011;52745;49.794;18.258;2022-09-09T04:30:55;7.18;;;5.18;;
65156;SDS011;52745;49.794;18.258;2022-09-09T04:33:23;8.57;;;4.75;;
65156;SDS011;52745;49.794;18.258;2022-09-09T04:35:53;7.45;;;5.00;;
65156;SDS011;52745;49.794;18.258;2022-09-09T04:38:22;6.18;;;5.20;;
65156;SDS011;52745;49.794;18.258;2022-09-09T04:40:50;5.93;;;4.90;;
65156;SDS011;52745;49.794;18.258;2022-09-09T04:43:18;9.85;;;5.50;;
65156;SDS011;52745;49.794;18.258;2022-09-09T04:45:49;6.38;;;5.03;;
65156;SDS011;52745;49.794;18.258;2022-09-09T04:48:19;9.07;;;5.20;;
65156;SDS011;52745;49.794;18.258;2022-09-09T04:51:03;6.07;;;4.70;;
65156;SDS011;52745;49.794;18.258;2022-09-09T04:53:32;6.82;;;5.57;;
65156;SDS011;52745;49.794;18.258;2022-09-09T04:56:05;10.90;;;4.72;;
65156;SDS011;52745;49.794;18.258;2022-09-09T04:58:47;6.40;;;4.72;;
65156;SDS011;52745;49.794;18.258;2022-09-09T05:01:16;6.20;;;4.45;;
65156;SDS011;52745;49.794;18.258;2022-09-09T05:03:51;7.40;;;4.97;;
65156;SDS011;52745;49.794;18.258;2022-09-09T05:06:21;7.88;;;5.03;;
65156;SDS011;52745;49.794;18.258;2022-09-09T05:08:52;6.78;;;4.78;;
65156;SDS011;52745;49.794;18.258;2022-09-09T05:11:24;7.40;;;4.78;;
65156;SDS011;52745;49.794;18.258;2022-09-09T05:13:55;8.50;;;4.68;;
65156;SDS011;52745;49.794;18.258;2022-09-09T05:16:23;9.20;;;4.97;;
65156;SDS011;52745;49.794;18.258;2022-09-09T05:18:49;6.80;;;4.80;;
65156;SDS011;52745;49.794;18.258;2022-09-09T05:21:20;6.88;;;4.53;;
65156;SDS011;52745;49.794;18.258;2022-09-09T05:23:49;7.20;;;5.00;;
65156;SDS011;52745;49.794;18.258;2022-09-09T05:26:19;8.10;;;4.72;;
65156;SDS011;52745;49.794;18.258;2022-09-09T05:28:49;8.82;;;5.18;;
65156;SDS011;52745;49.794;18.258;2022-09-09T05:31:16;8.82;;;5.32;;
65156;SDS011;52745;49.794;18.258;2022-09-09T05:33:47;8.20;;;6.05;;
65156;SDS011;52745;49.794;18.258;2022-09-09T05:36:16;13.48;;;6.18;;
65156;SDS011;52745;49.794;18.258;2022-09-09T05:38:45;10.70;;;5.70;;
65156;SDS011;52745;49.794;18.258;2022-09-09T05:41:13;8.35;;;6.30;;
65156;SDS011;52745;49.794;18.258;2022-09-09T05:43:44;10.18;;;6.18;;
65156;SDS011;52745;49.794;18.258;2022-09-09T05:46:14;9.93;;;6.45;;
65156;SDS011;52745;49.794;18.258;2022-09-09T05:48:43;7.57;;;6.55;;
65156;SDS011;52745;49.794;18.258;2022-09-09T05:51:24;9.50;;;7.05;;
65156;SDS011;52745;49.794;18.258;2022-09-09T05:53:55;8.18;;;6.43;;
65156;SDS011;52745;49.794;18.258;2022-09-09T05:56:25;10.85;;;7.70;;
65156;SDS011;52745;49.794;18.258;2022-09-09T05:58:55;22.05;;;16.20;;
65156;SDS011;52745;49.794;18.258;2022-09-09T06:01:24;15.65;;;10.05;;
65156;SDS011;52745;49.794;18.258;2022-09-09T06:03:52;17.00;;;9.13;;
65156;SDS011;52745;49.794;18.258;2022-09-09T06:06:22;15.80;;;9.50;;
65156;SDS011;52745;49.794;18.258;2022-09-09T06:08:54;19.23;;;13.57;;
65156;SDS011;52745;49.794;18.258;2022-09-09T06:11:24;18.23;;;9.65;;
65156;SDS011;52745;49.794;18.258;2022-09-09T06:13:52;25.73;;;10.75;;
65156;SDS011;52745;49.794;18.258;2022-09-09T06:16:22;14.38;;;9.60;;
65156;SDS011;52745;49.794;18.258;2022-09-09T06:18:51;14.55;;;9.25;;
65156;SDS011;52745;49.794;18.258;2022-09-09T06:21:20;13.35;;;9.13;;
65156;SDS011;52745;49.794;18.258;2022-09-09T06:23:48;13.90;;;9.75;;
65156;SDS011;52745;49.794;18.258;2022-09-09T06:28:49;12.38;;;8.82;;
65156;SDS011;52745;49.794;18.258;2022-09-09T06:31:20;17.13;;;9.38;;
65156;SDS011;52745;49.794;18.258;2022-09-09T06:33:49;14.73;;;9.27;;
65156;SDS011;52745;49.794;18.258;2022-09-09T06:36:19;24.70;;;16.15;;
65156;SDS011;52745;49.794;18.258;2022-09-09T06:38:47;16.77;;;10.40;;
65156;SDS011;52745;49.794;18.258;2022-09-09T06:41:15;16.75;;;10.30;;
65156;SDS011;52745;49.794;18.258;2022-09-09T06:43:45;15.50;;;9.20;;
65156;SDS011;52745;49.794;18.258;2022-09-09T06:46:13;15.52;;;9.05;;
65156;SDS011;52745;49.794;18.258;2022-09-09T06:48:43;13.02;;;8.70;;
65156;SDS011;52745;49.794;18.258;2022-09-09T06:53:49;15.93;;;10.00;;
65156;SDS011;52745;49.794;18.258;2022-09-09T06:56:22;16.20;;;9.80;;
65156;SDS011;52745;49.794;18.258;2022-09-09T06:58:52;18.65;;;10.25;;
65156;SDS011;52745;49.794;18.258;2022-09-09T07:01:26;14.45;;;10.05;;
65156;SDS011;52745;49.794;18.258;2022-09-09T07:03:57;16.40;;;9.82;;
65156;SDS011;52745;49.794;18.258;2022-09-09T07:06:27;15.30;;;9.48;;
65156;SDS011;52745;49.794;18.258;2022-09-09T07:08:57;15.43;;;10.30;;
65156;SDS011;52745;49.794;18.258;2022-09-09T07:11:28;15.55;;;10.38;;
65156;SDS011;52745;49.794;18.258;2022-09-09T07:13:57;15.43;;;10.00;;
65156;SDS011;52745;49.794;18.258;2022-09-09T07:16:25;15.90;;;10.50;;
65156;SDS011;52745;49.794;18.258;2022-09-09T07:18:55;18.60;;;10.95;;
65156;SDS011;52745;49.794;18.258;2022-09-09T07:21:25;14.85;;;11.05;;
65156;SDS011;52745;49.794;18.258;2022-09-09T07:23:53;18.30;;;10.95;;
65156;SDS011;52745;49.794;18.258;2022-09-09T07:26:22;14.45;;;10.05;;
65156;SDS011;52745;49.794;18.258;2022-09-09T07:28:51;16.35;;;9.93;;
65156;SDS011;52745;49.794;18.258;2022-09-09T07:31:21;17.20;;;10.77;;
65156;SDS011;52745;49.794;18.258;2022-09-09T07:33:54;13.70;;;9.13;;
65156;SDS011;52745;49.794;18.258;2022-09-09T07:36:25;13.35;;;9.25;;
65156;SDS011;52745;49.794;18.258;2022-09-09T07:38:59;13.50;;;7.32;;
65156;SDS011;52745;49.794;18.258;2022-09-09T07:41:33;14.13;;;7.50;;
65156;SDS011;52745;49.794;18.258;2022-09-09T07:44:05;9.68;;;7.38;;
65156;SDS011;52745;49.794;18.258;2022-09-09T07:46:33;10.00;;;6.80;;
65156;SDS011;52745;49.794;18.258;2022-09-09T07:49:01;13.23;;;7.85;;
65156;SDS011;52745;49.794;18.258;2022-09-09T07:51:31;17.67;;;11.60;;
65156;SDS011;52745;49.794;18.258;2022-09-09T07:54:00;10.77;;;7.45;;
65156;SDS011;52745;49.794;18.258;2022-09-09T07:56:31;14.82;;;7.05;;
65156;SDS011;52745;49.794;18.258;2022-09-09T07:58:58;11.20;;;6.35;;
65156;SDS011;52745;49.794;18.258;2022-09-09T08:01:45;8.30;;;5.53;;
65156;SDS011;52745;49.794;18.258;2022-09-09T08:04:17;6.82;;;5.18;;
65156;SDS011;52745;49.794;18.258;2022-09-09T08:06:47;7.85;;;5.00;;
65156;SDS011;52745;49.794;18.258;2022-09-09T08:09:22;5.85;;;4.47;;
65156;SDS011;52745;49.794;18.258;2022-09-09T08:11:57;7.75;;;5.38;;
65156;SDS011;52745;49.794;18.258;2022-09-09T08:14:25;5.55;;;4.35;;
65156;SDS011;52745;49.794;18.258;2022-09-09T08:16:51;4.53;;;3.58;;
65156;SDS011;52745;49.794;18.258;2022-09-09T08:19:22;4.97;;;3.75;;
65156;SDS011;52745;49.794;18.258;2022-09-09T08:21:49;4.72;;;3.38;;
65156;SDS011;52745;49.794;18.258;2022-09-09T08:24:16;5.43;;;3.13;;
65156;SDS011;52745;49.794;18.258;2022-09-09T08:26:48;6.03;;;4.13;;
65156;SDS011;52745;49.794;18.258;2022-09-09T08:29:17;5.32;;;4.20;;
65156;SDS011;52745;49.794;18.258;2022-09-09T08:31:47;6.85;;;4.93;;
65156;SDS011;52745;49.794;18.258;2022-09-09T08:34:15;5.45;;;3.88;;
65156;SDS011;52745;49.794;18.258;2022-09-09T08:36:43;6.05;;;4.28;;
65156;SDS011;52745;49.794;18.258;2022-09-09T08:39:13;9.10;;;3.92;;
65156;SDS011;52745;49.794;18.258;2022-09-09T08:47:18;4.00;;;3.53;;
65156;SDS011;52745;49.794;18.258;2022-09-09T08:52:54;3.33;;;2.80;;
65156;SDS011;52745;49.794;18.258;2022-09-09T08:55:30;4.43;;;3.40;;
65156;SDS011;52745;49.794;18.258;2022-09-09T08:58:09;5.10;;;4.40;;
65156;SDS011;52745;49.794;18.258;2022-09-09T09:00:44;5.13;;;4.22;;
65156;SDS011;52745;49.794;18.258;2022-09-09T09:03:18;5.80;;;4.72;;
65156;SDS011;52745;49.794;18.258;2022-09-09T09:06:08;4.40;;;3.33;;
65156;SDS011;52745;49.794;18.258;2022-09-09T09:09:07;3.45;;;2.85;;
65156;SDS011;52745;49.794;18.258;2022-09-09T09:11:38;5.78;;;2.80;;
65156;SDS011;52745;49.794;18.258;2022-09-09T09:14:21;4.50;;;2.85;;
65156;SDS011;52745;49.794;18.258;2022-09-09T09:19:24;3.80;;;2.70;;
65156;SDS011;52745;49.794;18.258;2022-09-09T09:21:59;4.53;;;2.80;;
65156;SDS011;52745;49.794;18.258;2022-09-09T09:29:59;4.07;;;2.55;;
65156;SDS011;52745;49.794;18.258;2022-09-09T09:32:30;5.25;;;2.28;;
65156;SDS011;52745;49.794;18.258;2022-09-09T09:35:02;6.10;;;2.28;;
65156;SDS011;52745;49.794;18.258;2022-09-09T09:37:35;5.53;;;2.30;;
65156;SDS011;52745;49.794;18.258;2022-09-09T09:40:09;2.67;;;2.33;;
65156;SDS011;52745;49.794;18.258;2022-09-09T09:42:54;4.78;;;2.60;;
65156;SDS011;52745;49.794;18.258;2022-09-09T09:45:28;3.70;;;2.75;;
65156;SDS011;52745;49.794;18.258;2022-09-09T09:48:14;5.07;;;3.25;;
65156;SDS011;52745;49.794;18.258;2022-09-09T09:53:31;2.83;;;2.05;;
65156;SDS011;52745;49.794;18.258;2022-09-09T09:56:04;2.33;;;1.80;;
65156;SDS011;52745;49.794;18.258;2022-09-09T09:58:33;2.53;;;1.70;;
65156;SDS011;52745;49.794;18.258;2022-09-09T10:01:21;3.72;;;1.83;;
65156;SDS011;52745;49.794;18.258;2022-09-09T10:09:01;3.10;;;1.40;;
65156;SDS011;52745;49.794;18.258;2022-09-09T10:14:22;1.55;;;1.30;;
65156;SDS011;52745;49.794;18.258;2022-09-09T10:17:07;2.17;;;1.20;;
65156;SDS011;52745;49.794;18.258;2022-09-09T10:22:40;2.20;;;1.00;;
65156;SDS011;52745;49.794;18.258;2022-09-09T10:36:23;2.05;;;1.00;;
65156;SDS011;52745;49.794;18.258;2022-09-09T10:38:53;1.73;;;1.30;;
65156;SDS011;52745;49.794;18.258;2022-09-09T10:44:12;1.33;;;0.85;;
65156;SDS011;52745;49.794;18.258;2022-09-09T10:55:09;2.72;;;1.00;;
65156;SDS011;52745;49.794;18.258;2022-09-09T11:02:55;1.27;;;0.90;;
65156;SDS011;52745;49.794;18.258;2022-09-09T11:05:29;0.80;;;0.60;;
65156;SDS011;52745;49.794;18.258;2022-09-09T11:08:05;3.28;;;2.72;;
65156;SDS011;52745;49.794;18.258;2022-09-09T11:10:46;6.22;;;2.60;;
65156;SDS011;52745;49.794;18.258;2022-09-09T11:16:33;9.23;;;7.03;;
65156;SDS011;52745;49.794;18.258;2022-09-09T11:21:52;2.17;;;1.10;;
65156;SDS011;52745;49.794;18.258;2022-09-09T11:24:25;3.50;;;0.98;;
65156;SDS011;52745;49.794;18.258;2022-09-09T11:27:11;1.98;;;0.90;;
65156;SDS011;52745;49.794;18.258;2022-09-09T11:32:47;1.50;;;0.73;;
65156;SDS011;52745;49.794;18.258;2022-09-09T11:38:28;4.25;;;2.95;;
65156;SDS011;52745;49.794;18.258;2022-09-09T11:41:05;3.08;;;0.60;;
65156;SDS011;52745;49.794;18.258;2022-09-09T11:43:40;1.30;;;0.70;;
65156;SDS011;52745;49.794;18.258;2022-09-09T11:46:07;1.65;;;0.75;;
65156;SDS011;52745;49.794;18.258;2022-09-09T11:53:55;2.50;;;1.20;;
65156;SDS011;52745;49.794;18.258;2022-09-09T11:58:55;7.05;;;3.50;;
65156;SDS011;52745;49.794;18.258;2022-09-09T12:01:27;1.40;;;0.80;;
65156;SDS011;52745;49.794;18.258;2022-09-09T12:04:01;1.02;;;0.82;;
65156;SDS011;52745;49.794;18.258;2022-09-09T12:06:32;3.33;;;0.70;;
65156;SDS011;52745;49.794;18.258;2022-09-09T12:19:59;1.58;;;0.60;;
65156;SDS011;52745;49.794;18.258;2022-09-09T12:28:17;2.33;;;1.40;;
65156;SDS011;52745;49.794;18.258;2022-09-09T12:33:35;1.52;;;0.80;;
65156;SDS011;52745;49.794;18.258;2022-09-09T12:36:05;1.33;;;0.80;;
65156;SDS011;52745;49.794;18.258;2022-09-09T12:38:57;1.45;;;0.70;;
65156;SDS011;52745;49.794;18.258;2022-09-09T12:41:36;3.33;;;0.80;;
65156;SDS011;52745;49.794;18.258;2022-09-09T12:44:05;0.68;;;0.68;;
65156;SDS011;52745;49.794;18.258;2022-09-09T12:49:04;2.53;;;0.90;;
65156;SDS011;52745;49.794;18.258;2022-09-09T12:51:31;1.85;;;0.80;;
65156;SDS011;52745;49.794;18.258;2022-09-09T12:53:59;1.25;;;0.82;;
65156;SDS011;52745;49.794;18.258;2022-09-09T12:56:27;1.23;;;0.90;;
65156;SDS011;52745;49.794;18.258;2022-09-09T12:58:57;1.88;;;0.80;;
65156;SDS011;52745;49.794;18.258;2022-09-09T13:01:28;3.92;;;1.13;;
65156;SDS011;52745;49.794;18.258;2022-09-09T13:03:57;1.20;;;0.90;;
65156;SDS011;52745;49.794;18.258;2022-09-09T13:06:30;1.83;;;0.82;;
65156;SDS011;52745;49.794;18.258;2022-09-09T13:08:59;1.92;;;0.80;;
65156;SDS011;52745;49.794;18.258;2022-09-09T13:14:05;0.90;;;0.70;;
65156;SDS011;52745;49.794;18.258;2022-09-09T13:16:33;5.60;;;0.90;;
65156;SDS011;52745;49.794;18.258;2022-09-09T13:19:06;2.53;;;1.08;;
65156;SDS011;52745;49.794;18.258;2022-09-09T13:21:39;1.48;;;1.00;;
65156;SDS011;52745;49.794;18.258;2022-09-09T13:24:30;1.65;;;0.80;;
65156;SDS011;52745;49.794;18.258;2022-09-09T13:27:25;1.42;;;0.90;;
65156;SDS011;52745;49.794;18.258;2022-09-09T13:29:56;1.75;;;0.80;;
65156;SDS011;52745;49.794;18.258;2022-09-09T13:32:24;3.67;;;1.10;;
65156;SDS011;52745;49.794;18.258;2022-09-09T13:34:55;1.02;;;0.70;;
65156;SDS011;52745;49.794;18.258;2022-09-09T13:37:36;3.60;;;1.00;;
65156;SDS011;52745;49.794;18.258;2022-09-09T13:40:04;1.88;;;1.00;;
65156;SDS011;52745;49.794;18.258;2022-09-09T13:42:33;1.33;;;0.80;;
65156;SDS011;52745;49.794;18.258;2022-09-09T13:45:05;1.30;;;0.80;;
65156;SDS011;52745;49.794;18.258;2022-09-09T13:47:32;1.90;;;0.80;;
65156;SDS011;52745;49.794;18.258;2022-09-09T13:53:02;4.97;;;0.90;;
65156;SDS011;52745;49.794;18.258;2022-09-09T13:55:30;1.10;;;0.68;;
65156;SDS011;52745;49.794;18.258;2022-09-09T14:00:24;2.95;;;0.80;;
65156;SDS011;52745;49.794;18.258;2022-09-09T14:02:51;3.55;;;1.00;;
65156;SDS011;52745;49.794;18.258;2022-09-09T14:05:18;1.58;;;0.75;;
65156;SDS011;52745;49.794;18.258;2022-09-09T14:07:45;1.67;;;0.90;;
65156;SDS011;52745;49.794;18.258;2022-09-09T14:10:12;1.10;;;0.75;;
65156;SDS011;52745;49.794;18.258;2022-09-09T14:12:39;1.27;;;0.90;;
65156;SDS011;52745;49.794;18.258;2022-09-09T14:15:06;1.60;;;0.80;;
65156;SDS011;52745;49.794;18.258;2022-09-09T14:17:34;1.00;;;0.70;;
65156;SDS011;52745;49.794;18.258;2022-09-09T14:20:05;3.47;;;0.88;;
65156;SDS011;52745;49.794;18.258;2022-09-09T14:22:35;0.77;;;0.70;;
65156;SDS011;52745;49.794;18.258;2022-09-09T14:25:02;4.30;;;0.88;;
65156;SDS011;52745;49.794;18.258;2022-09-09T14:27:29;3.28;;;0.80;;
65156;SDS011;52745;49.794;18.258;2022-09-09T14:29:56;1.23;;;0.73;;
65156;SDS011;52745;49.794;18.258;2022-09-09T14:32:23;1.50;;;0.90;;
65156;SDS011;52745;49.794;18.258;2022-09-09T14:34:50;2.85;;;0.90;;
65156;SDS011;52745;49.794;18.258;2022-09-09T14:37:16;2.35;;;0.90;;
65156;SDS011;52745;49.794;18.258;2022-09-09T14:39:43;2.33;;;0.90;;
65156;SDS011;52745;49.794;18.258;2022-09-09T14:42:10;2.55;;;0.90;;
65156;SDS011;52745;49.794;18.258;2022-09-09T14:44:37;1.80;;;1.00;;
65156;SDS011;52745;49.794;18.258;2022-09-09T14:47:06;3.05;;;1.10;;
65156;SDS011;52745;49.794;18.258;2022-09-09T14:49:34;6.10;;;1.50;;
65156;SDS011;52745;49.794;18.258;2022-09-09T14:52:01;6.13;;;1.30;;
65156;SDS011;52745;49.794;18.258;2022-09-09T14:54:28;1.52;;;0.75;;
65156;SDS011;52745;49.794;18.258;2022-09-09T14:56:55;2.80;;;0.90;;
65156;SDS011;52745;49.794;18.258;2022-09-09T14:59:23;3.70;;;0.90;;
65156;SDS011;52745;49.794;18.258;2022-09-09T15:01:50;2.13;;;1.00;;
65156;SDS011;52745;49.794;18.258;2022-09-09T15:04:16;3.55;;;0.90;;
65156;SDS011;52745;49.794;18.258;2022-09-09T15:06:43;1.63;;;0.88;;
65156;SDS011;52745;49.794;18.258;2022-09-09T15:09:14;2.55;;;1.00;;
65156;SDS011;52745;49.794;18.258;2022-09-09T15:11:41;1.85;;;0.98;;
65156;SDS011;52745;49.794;18.258;2022-09-09T15:14:09;2.45;;;1.00;;
65156;SDS011;52745;49.794;18.258;2022-09-09T15:16:35;1.70;;;0.93;;
65156;SDS011;52745;49.794;18.258;2022-09-09T15:19:02;2.92;;;1.02;;
65156;SDS011;52745;49.794;18.258;2022-09-09T15:21:30;1.95;;;0.98;;
65156;SDS011;52745;49.794;18.258;2022-09-09T15:23:58;3.80;;;0.90;;
65156;SDS011;52745;49.794;18.258;2022-09-09T15:26:25;2.00;;;1.00;;
65156;SDS011;52745;49.794;18.258;2022-09-09T15:28:53;1.92;;;1.08;;
65156;SDS011;52745;49.794;18.258;2022-09-09T15:31:21;2.53;;;1.30;;
65156;SDS011;52745;49.794;18.258;2022-09-09T15:33:49;2.33;;;1.20;;
65156;SDS011;52745;49.794;18.258;2022-09-09T15:38:48;2.83;;;0.98;;
65156;SDS011;52745;49.794;18.258;2022-09-09T15:41:16;1.10;;;1.00;;
65156;SDS011;52745;49.794;18.258;2022-09-09T15:43:44;3.70;;;1.20;;
65156;SDS011;52745;49.794;18.258;2022-09-09T15:49:14;4.10;;;1.55;;
65156;SDS011;52745;49.794;18.258;2022-09-09T15:51:47;4.88;;;1.33;;
65156;SDS011;52745;49.794;18.258;2022-09-09T15:54:18;2.85;;;1.33;;
65156;SDS011;52745;49.794;18.258;2022-09-09T15:56:46;4.63;;;1.25;;
65156;SDS011;52745;49.794;18.258;2022-09-09T15:59:16;8.07;;;1.70;;
65156;SDS011;52745;49.794;18.258;2022-09-09T16:01:43;5.82;;;1.20;;
65156;SDS011;52745;49.794;18.258;2022-09-09T16:04:09;7.22;;;1.50;;
65156;SDS011;52745;49.794;18.258;2022-09-09T16:06:36;3.42;;;1.30;;
65156;SDS011;52745;49.794;18.258;2022-09-09T16:09:04;3.05;;;1.23;;
65156;SDS011;52745;49.794;18.258;2022-09-09T16:11:32;3.65;;;1.40;;
65156;SDS011;52745;49.794;18.258;2022-09-09T16:14:01;11.00;;;1.30;;
65156;SDS011;52745;49.794;18.258;2022-09-09T16:16:30;2.00;;;1.17;;
65156;SDS011;52745;49.794;18.258;2022-09-09T16:18:58;2.63;;;1.77;;
65156;SDS011;52745;49.794;18.258;2022-09-09T16:21:29;6.22;;;2.08;;
65156;SDS011;52745;49.794;18.258;2022-09-09T16:23:58;3.03;;;1.85;;
65156;SDS011;52745;49.794;18.258;2022-09-09T16:26:26;4.55;;;2.15;;
65156;SDS011;52745;49.794;18.258;2022-09-09T16:28:53;7.28;;;1.80;;
65156;SDS011;52745;49.794;18.258;2022-09-09T16:31:21;6.88;;;1.83;;
65156;SDS011;52745;49.794;18.258;2022-09-09T16:33:49;3.72;;;1.65;;
65156;SDS011;52745;49.794;18.258;2022-09-09T16:36:18;4.10;;;1.80;;
65156;SDS011;52745;49.794;18.258;2022-09-09T16:38:56;6.85;;;2.30;;
65156;SDS011;52745;49.794;18.258;2022-09-09T16:41:25;9.15;;;2.28;;
65156;SDS011;52745;49.794;18.258;2022-09-09T16:43:57;8.52;;;2.20;;
65156;SDS011;52745;49.794;18.258;2022-09-09T16:46:25;5.07;;;2.20;;
65156;SDS011;52745;49.794;18.258;2022-09-09T16:48:55;5.30;;;2.67;;
65156;SDS011;52745;49.794;18.258;2022-09-09T16:53:54;10.20;;;2.63;;
65156;SDS011;52745;49.794;18.258;2022-09-09T16:56:22;5.95;;;2.15;;
65156;SDS011;52745;49.794;18.258;2022-09-09T16:58:54;6.25;;;1.95;;
65156;SDS011;52745;49.794;18.258;2022-09-09T17:01:23;8.93;;;2.13;;
65156;SDS011;52745;49.794;18.258;2022-09-09T17:03:57;4.97;;;2.20;;
65156;SDS011;52745;49.794;18.258;2022-09-09T17:06:27;7.70;;;2.45;;
65156;SDS011;52745;49.794;18.258;2022-09-09T17:08:58;5.65;;;2.60;;
65156;SDS011;52745;49.794;18.258;2022-09-09T17:11:27;8.20;;;2.85;;
65156;SDS011;52745;49.794;18.258;2022-09-09T17:13:55;7.07;;;2.60;;
65156;SDS011;52745;49.794;18.258;2022-09-09T17:16:25;8.27;;;3.33;;
65156;SDS011;52745;49.794;18.258;2022-09-09T17:18:56;4.55;;;2.40;;
65156;SDS011;52745;49.794;18.258;2022-09-09T17:21:25;4.25;;;2.88;;
65156;SDS011;52745;49.794;18.258;2022-09-09T17:23:52;4.72;;;3.15;;
65156;SDS011;52745;49.794;18.258;2022-09-09T17:26:20;10.68;;;3.50;;